Time;durP1;ratioP1;P1;durP2;ratioP2;P2;SDS_P1;SDS_P2;PMS_P1;PMS_P2;Temp;Humidity;BMP_temperature;BMP_pressure;BME280_temperature;BME280_humidity;BME280_pressure;Samples;Min_cycle;Max_cycle;Signal;HPM_P1;HPM_P2
2021/01/25 00:00:25;;;;;;;19.63;10.47;;;;;;;-0.07;94.85;99895.78;5031601;28;20048;-83
2021/01/25 00:02:50;;;;;;;16.92;9.57;;;;;;;-0.07;94.79;99894.91;5033217;28;20372;-83
2021/01/25 00:05:16;;;;;;;24.92;12.52;;;;;;;-0.10;94.90;99894.78;5033543;28;20031;-80
2021/01/25 00:07:41;;;;;;;18.10;9.02;;;;;;;-0.11;94.98;99893.91;5031449;28;20029;-85
2021/01/25 00:10:07;;;;;;;19.17;9.38;;;;;;;-0.09;95.27;99899.88;5039121;28;20029;-83
2021/01/25 00:12:33;;;;;;;19.02;8.85;;;;;;;-0.11;95.21;99898.94;5037681;28;20029;-83
2021/01/25 00:14:59;;;;;;;15.05;8.88;;;;;;;-0.11;95.47;99898.94;5037313;28;20025;-82
2021/01/25 00:17:24;;;;;;;22.98;9.77;;;;;;;-0.13;95.39;99903.06;5037661;28;20030;-83
2021/01/25 00:19:50;;;;;;;19.48;9.07;;;;;;;-0.12;95.20;99911.50;5035835;28;20029;-83
2021/01/25 00:22:15;;;;;;;20.97;10.00;;;;;;;-0.11;95.41;99913.22;5037402;28;20029;-84
2021/01/25 00:24:40;;;;;;;16.40;9.17;;;;;;;-0.08;95.29;99919.28;5036028;28;20300;-82
2021/01/25 00:27:05;;;;;;;20.15;8.73;;;;;;;-0.04;95.07;99920.31;5039631;28;20033;-83
2021/01/25 00:29:32;;;;;;;18.98;9.45;;;;;;;-0.04;95.01;99921.19;5036186;28;20079;-82
2021/01/25 00:31:58;;;;;;;21.33;9.20;;;;;;;0.02;95.04;99920.66;5037055;28;20116;-81
2021/01/25 00:34:24;;;;;;;;;;;;;;;0.04;95.23;99915.69;5038606;28;20025;-80
2021/01/25 00:36:49;;;;;;;22.37;11.57;;;;;;;0.05;95.00;99924.97;5038537;28;19917;-82
2021/01/25 00:39:14;;;;;;;33.55;17.08;;;;;;;0.02;94.82;99924.84;5037388;28;20051;-82
2021/01/25 00:41:40;;;;;;;35.63;18.60;;;;;;;0.06;94.66;99929.25;5037309;28;20028;-81
2021/01/25 00:44:05;;;;;;;36.42;19.33;;;;;;;0.01;95.00;99923.97;5037975;28;20033;-80
2021/01/25 00:46:30;;;;;;;44.15;20.88;;;;;;;0.00;94.95;99922.22;5036011;28;20025;-80
2021/01/25 00:48:56;;;;;;;39.30;20.05;;;;;;;0.03;94.75;99924.03;5035871;28;20033;-81
2021/01/25 00:51:21;;;;;;;37.83;20.70;;;;;;;0.01;94.67;99923.09;5035293;28;20438;-81
2021/01/25 00:53:46;;;;;;;37.22;18.55;;;;;;;0.08;94.96;99925.13;5035967;28;20483;-81
2021/01/25 00:56:12;;;;;;;32.92;18.30;;;;;;;0.08;94.64;99930.19;5035235;28;20029;-80
2021/01/25 00:58:38;;;;;;;41.30;20.33;;;;;;;0.05;94.37;99927.50;5036525;28;20076;-80
2021/01/25 01:01:03;;;;;;;;;;;;;;;-0.02;94.21;99929.69;5035224;28;20076;-80
2021/01/25 01:03:29;;;;;;;41.17;20.90;;;;;;;-0.03;94.34;99927.97;5034286;28;19955;-81
2021/01/25 01:05:54;;;;;;;40.85;20.45;;;;;;;-0.01;94.49;99933.09;5033685;28;20108;-80
2021/01/25 01:08:19;;;;;;;41.20;20.87;;;;;;;0.02;94.56;99927.34;5036005;28;20091;-80
2021/01/25 01:10:46;;;;;;;40.00;18.93;;;;;;;0.02;94.24;99934.94;5034672;28;20295;-81
2021/01/25 01:13:11;;;;;;;36.10;19.87;;;;;;;-0.03;94.49;99937.19;5033077;28;20021;-82
2021/01/25 01:15:36;;;;;;;39.78;20.05;;;;;;;-0.04;94.47;99936.31;5033620;28;20036;-82
2021/01/25 01:18:02;;;;;;;37.97;20.90;;;;;;;-0.03;94.74;99944.75;5034933;28;20376;-80
2021/01/25 01:20:27;;;;;;;45.65;21.73;;;;;;;-0.02;94.91;99949.03;5034287;28;20144;-79
2021/01/25 01:22:53;;;;;;;44.95;22.50;;;;;;;-0.03;94.73;99952.34;5036021;28;20026;-80
2021/01/25 01:25:18;;;;;;;43.97;22.23;;;;;;;-0.03;94.91;99958.25;5034109;28;20017;-80
2021/01/25 01:27:43;;;;;;;37.83;21.47;;;;;;;-0.02;94.78;99959.13;5035594;28;20095;-80
2021/01/25 01:30:09;;;;;;;44.78;21.20;;;;;;;-0.05;95.09;99966.53;5034144;28;20272;-81
2021/01/25 01:32:35;;;;;;;43.60;21.58;;;;;;;-0.04;95.13;99966.63;5033854;28;20039;-80
2021/01/25 01:35:01;;;;;;;41.47;20.08;;;;;;;0.03;94.87;99964.44;5032374;28;20030;-80
2021/01/25 01:37:26;;;;;;;39.70;19.70;;;;;;;0.04;94.85;99969.56;5034372;28;20075;-80
2021/01/25 01:39:52;;;;;;;32.15;17.13;;;;;;;0.06;94.99;99969.63;5034399;28;20029;-80
2021/01/25 01:42:18;;;;;;;34.92;18.95;;;;;;;0.04;94.76;99966.16;5033795;28;20021;-80
2021/01/25 01:44:44;;;;;;;39.05;19.60;;;;;;;0.03;94.91;99979.59;5035279;28;20048;-80
2021/01/25 01:47:17;;;;;;;40.53;18.73;;;;;;;0.05;94.76;99980.53;5034490;28;20109;-79
2021/01/25 01:49:44;;;;;;;35.07;18.97;;;;;;;0.06;94.38;99977.22;5039032;28;20037;-80
2021/01/25 01:52:09;;;;;;;34.00;18.63;;;;;;;0.03;94.55;99974.53;5039379;28;20029;-81
2021/01/25 01:54:35;;;;;;;35.00;17.48;;;;;;;0.07;94.57;99977.28;5036935;28;20725;-80
2021/01/25 01:57:01;;;;;;;33.05;17.67;;;;;;;0.07;94.57;99976.41;5038025;28;20029;-78
2021/01/25 01:59:26;;;;;;;33.97;18.17;;;;;;;0.04;94.26;99986.38;5040004;28;20029;-81
2021/01/25 02:01:52;;;;;;;33.45;17.48;;;;;;;0.02;94.31;99988.81;5039309;28;20021;-81
2021/01/25 02:04:17;;;;;;;33.78;19.60;;;;;;;0.05;94.23;99990.63;5035575;28;20025;-79
2021/01/25 02:06:43;;;;;;;35.75;19.48;;;;;;;0.10;94.50;99986.69;5037184;28;20029;-79
2021/01/25 02:09:10;;;;;;;34.45;18.52;;;;;;;0.12;94.50;99990.16;5039604;28;20033;-79
2021/01/25 02:11:36;;;;;;;36.77;18.23;;;;;;;0.12;94.63;99997.72;5036283;28;20025;-80
2021/01/25 02:14:04;;;;;;;34.40;18.50;;;;;;;0.14;94.42;99998.66;5037132;28;20026;-79
2021/01/25 02:16:30;;;;;;;37.40;18.73;;;;;;;0.16;94.41;99999.63;5036749;28;20445;-78
2021/01/25 02:18:56;;;;;;;34.72;19.65;;;;;;;0.16;93.97;99995.44;5037296;28;20109;-80
2021/01/25 02:21:27;;;;;;;32.10;17.87;;;;;;;0.17;93.72;99996.28;5037944;28;20096;-79
2021/01/25 02:24:04;;;;;;;34.90;19.50;;;;;;;0.15;94.23;100001.28;5034774;28;20036;-79
2021/01/25 02:26:49;;;;;;;37.57;19.67;;;;;;;0.15;94.08;100002.94;5035383;28;20051;-78
2021/01/25 02:29:15;;;;;;;35.23;19.67;;;;;;;0.10;94.34;100001.81;5035466;28;20036;-80
2021/01/25 02:31:41;;;;;;;38.92;20.98;;;;;;;0.04;94.34;100009.09;5035998;28;20018;-79
2021/01/25 02:34:06;;;;;;;40.17;22.13;;;;;;;-0.02;94.43;100010.47;5037226;28;20033;-79
2021/01/25 02:36:33;;;;;;;38.65;21.00;;;;;;;0.01;94.89;100017.38;5037112;28;20033;-79
2021/01/25 02:39:00;;;;;;;41.30;21.63;;;;;;;0.01;94.82;100014.84;5034328;28;20025;-78
2021/01/25 02:41:27;;;;;;;40.50;21.97;;;;;;;-0.01;94.88;100014.75;5037569;28;20021;-80
2021/01/25 02:43:55;;;;;;;40.00;21.83;;;;;;;-0.01;94.59;100017.25;5035602;28;20033;-79
2021/01/25 02:46:22;;;;;;;43.43;21.27;;;;;;;0.02;94.74;100015.72;5034613;28;20097;-79
2021/01/25 02:48:47;;;;;;;37.43;20.77;;;;;;;-0.01;94.78;100022.31;5036772;28;20060;-82
2021/01/25 02:51:13;;;;;;;39.40;21.45;;;;;;;0.01;94.75;100021.56;5036610;28;20057;-79
2021/01/25 02:53:39;;;;;;;43.28;22.55;;;;;;;-0.02;94.93;100025.63;5035520;28;20051;-79
2021/01/25 02:56:05;;;;;;;43.33;21.08;;;;;;;0.01;95.12;100027.47;5035663;28;20025;-79
2021/01/25 02:58:31;;;;;;;37.87;20.70;;;;;;;0.01;94.85;100039.22;5035382;28;20608;-79
2021/01/25 03:00:57;;;;;;;38.17;19.80;;;;;;;0.05;94.49;100033.56;5035523;28;20033;-78
2021/01/25 03:03:23;;;;;;;39.55;21.83;;;;;;;-0.02;94.60;100037.38;5036058;28;20100;-78
2021/01/25 03:05:49;;;;;;;37.70;21.33;;;;;;;-0.01;94.86;100037.47;5033209;28;20079;-80
2021/01/25 03:08:14;;;;;;;39.17;21.00;;;;;;;0.03;94.29;100043.56;5033380;28;20112;-78
2021/01/25 03:10:39;;;;;;;43.50;21.13;;;;;;;0.05;94.51;100043.66;5034292;28;20029;-79
2021/01/25 03:13:05;;;;;;;42.05;21.05;;;;;;;0.01;94.75;100041.75;5033608;28;20104;-79
2021/01/25 03:15:36;;;;;;;42.42;21.33;;;;;;;0.01;94.61;100049.34;5034129;28;20029;-79
2021/01/25 03:18:03;;;;;;;41.50;21.50;;;;;;;0.05;94.78;100049.56;5035702;28;20064;-78
2021/01/25 03:20:28;;;;;;;39.90;21.77;;;;;;;0.02;94.71;100053.59;5033963;28;20044;-79
2021/01/25 03:22:53;;;;;;;45.03;21.08;;;;;;;0.01;94.50;100050.19;5033902;28;20025;-78
2021/01/25 03:25:19;;;;;;;38.25;20.55;;;;;;;0.04;95.05;100054.53;5033944;28;20033;-79
2021/01/25 03:27:44;;;;;;;40.05;20.20;;;;;;;0.05;94.91;100057.16;5035945;28;20450;-78
2021/01/25 03:30:10;;;;;;;42.03;20.98;;;;;;;0.04;94.70;100057.94;5040124;28;20037;-78
2021/01/25 03:32:36;;;;;;;37.33;19.73;;;;;;;0.03;94.80;100060.38;5041686;28;20037;-79
2021/01/25 03:35:03;;;;;;;38.17;19.63;;;;;;;0.08;94.64;100064.00;5040918;28;20499;-80
2021/01/25 03:37:30;;;;;;;36.57;19.13;;;;;;;0.09;94.69;100068.28;5042303;28;20037;-80
2021/01/25 03:39:55;;;;;;;38.03;19.10;;;;;;;0.14;94.43;100061.78;5041293;28;20029;-80
2021/01/25 03:42:21;;;;;;;33.20;17.88;;;;;;;0.19;94.20;100065.44;5037599;28;20047;-77
2021/01/25 03:44:46;;;;;;;31.60;17.33;;;;;;;0.21;94.24;100063.84;5040159;28;20033;-78
2021/01/25 03:47:11;;;;;;;34.83;17.83;;;;;;;0.19;94.18;100070.47;5040450;28;20032;-79
2021/01/25 03:49:36;;;;;;;35.87;16.43;;;;;;;0.15;94.48;100069.44;5038063;28;20306;-78
2021/01/25 03:52:02;;;;;;;30.57;17.20;;;;;;;0.13;94.30;100075.22;5040980;28;20708;-80
2021/01/25 03:54:27;;;;;;;33.53;17.77;;;;;;;0.06;94.35;100083.25;5038631;28;20037;-78
2021/01/25 03:56:52;;;;;;;37.37;18.97;;;;;;;0.03;94.27;100086.50;5040695;28;20048;-81
2021/01/25 03:59:18;;;;;;;34.00;17.13;;;;;;;-0.02;93.93;100090.41;5042602;28;20350;-80
2021/01/25 04:01:43;;;;;;;35.70;18.95;;;;;;;-0.07;94.02;100090.16;5037656;28;20033;-79
2021/01/25 04:04:08;;;;;;;32.28;16.95;;;;;;;-0.07;94.24;100101.91;5036995;28;20551;-79
2021/01/25 04:06:34;;;;;;;32.80;17.80;;;;;;;-0.10;93.99;100107.66;5070430;23;20036;-79
2021/01/25 04:08:59;;;;;;;29.88;17.02;;;;;;;-0.09;94.07;100109.41;5056089;28;20104;-78
2021/01/25 04:11:24;;;;;;;32.10;18.13;;;;;;;-0.10;94.00;100127.88;5058662;28;20120;-78
2021/01/25 04:13:50;;;;;;;33.78;17.85;;;;;;;-0.07;94.29;100127.16;5058680;28;20497;-79
2021/01/25 04:16:15;;;;;;;32.97;17.83;;;;;;;-0.01;94.27;100130.88;5045340;28;20033;-78
2021/01/25 04:18:40;;;;;;;30.95;17.40;;;;;;;0.06;94.23;100128.72;5038518;28;20029;-78
2021/01/25 04:21:05;;;;;;;32.13;17.50;;;;;;;0.09;94.17;100129.75;5037929;28;20088;-78
2021/01/25 04:23:31;;;;;;;30.48;17.88;;;;;;;0.07;94.33;100132.97;5035986;28;20026;-79
2021/01/25 04:25:56;;;;;;;32.40;18.00;;;;;;;0.12;94.23;100134.09;5036282;28;20060;-78
2021/01/25 04:28:21;;;;;;;33.60;18.90;;;;;;;0.09;94.07;100149.94;5036098;28;20272;-79
2021/01/25 04:30:46;;;;;;;31.37;18.83;;;;;;;0.09;94.10;100151.59;5037660;28;20022;-78
2021/01/25 04:33:12;;;;;;;34.33;19.00;;;;;;;0.07;94.13;100156.56;5037338;28;20813;-80
2021/01/25 04:35:40;;;;;;;34.70;18.75;;;;;;;0.07;94.08;100159.09;5036916;28;20021;-80
2021/01/25 04:38:07;;;;;;;32.97;19.47;;;;;;;0.11;94.08;100163.50;5035464;28;20080;-81
2021/01/25 04:40:32;;;;;;;33.93;19.83;;;;;;;0.09;93.97;100169.28;5035447;28;20399;-80
2021/01/25 04:43:00;;;;;;;40.42;19.05;;;;;;;0.17;93.70;100173.06;5037518;28;20029;-78
2021/01/25 04:45:25;;;;;;;38.50;19.17;;;;;;;0.16;93.61;100179.78;5035997;28;20021;-79
2021/01/25 04:47:53;;;;;;;35.58;19.65;;;;;;;0.13;93.72;100179.63;5035150;28;20017;-80
2021/01/25 04:50:20;;;;;;;32.77;19.43;;;;;;;0.15;93.61;100179.69;5037862;28;20059;-80
2021/01/25 04:52:46;;;;;;;36.80;20.33;;;;;;;0.08;93.66;100178.50;5037639;28;20084;-79
2021/01/25 04:55:11;;;;;;;;;;;;;;;0.06;93.48;100179.22;5036429;28;20025;-80
2021/01/25 04:57:37;;;;;;;34.43;19.43;;;;;;;0.06;93.46;100180.06;5035969;28;20003;-80
2021/01/25 05:00:07;;;;;;;32.30;18.25;;;;;;;0.12;93.62;100174.47;5036678;28;20032;-79
2021/01/25 05:02:37;;;;;;;32.90;17.73;;;;;;;0.13;93.55;100179.63;5037154;28;20484;-80
2021/01/25 05:05:04;;;;;;;35.83;19.23;;;;;;;0.15;93.38;100178.03;5036791;28;20034;-80
2021/01/25 05:07:30;;;;;;;33.70;17.90;;;;;;;0.12;92.78;100187.13;5036807;28;20021;-80
2021/01/25 05:09:55;;;;;;;28.73;17.55;;;;;;;0.13;92.19;100193.91;5036880;28;20456;-79
2021/01/25 05:12:21;;;;;;;30.55;17.02;;;;;;;0.04;91.91;100190.88;5036591;28;20079;-81
2021/01/25 05:14:46;;;;;;;29.83;16.23;;;;;;;-0.03;91.78;100203.13;5036739;28;20034;-80
2021/01/25 05:17:13;;;;;;;31.63;18.27;;;;;;;-0.08;91.81;100206.19;5035459;28;20104;-80
2021/01/25 05:19:44;;;;;;;31.90;17.17;;;;;;;-0.18;91.73;100214.94;5035454;28;20276;-79
2021/01/25 05:22:20;;;;;;;36.97;18.30;;;;;;;-0.26;92.19;100208.59;5036503;28;20028;-80
2021/01/25 05:24:54;;;;;;;31.95;17.00;;;;;;;-0.31;92.28;100207.47;5036634;28;20048;-80
2021/01/25 05:27:28;;;;;;;38.03;20.10;;;;;;;-0.38;92.69;100220.50;5036646;28;20024;-78
2021/01/25 05:29:55;;;;;;;32.30;18.07;;;;;;;-0.40;92.85;100217.00;5036126;28;20022;-78
2021/01/25 05:32:20;;;;;;;33.53;18.57;;;;;;;-0.43;93.12;100224.41;5036397;28;20032;-79
2021/01/25 05:34:47;;;;;;;37.17;19.55;;;;;;;-0.43;93.13;100224.41;5035306;28;20029;-78
2021/01/25 05:37:13;;;;;;;30.87;17.67;;;;;;;-0.46;93.32;100224.25;5036364;28;20029;-78
2021/01/25 05:39:47;;;;;;;29.70;16.03;;;;;;;-0.43;93.16;100227.81;5036472;28;20035;-78
2021/01/25 05:42:13;;;;;;;34.87;18.80;;;;;;;-0.50;93.30;100234.94;5034783;28;20159;-78
2021/01/25 05:44:39;;;;;;;32.28;19.88;;;;;;;-0.52;93.17;100236.50;5034541;28;20391;-78
2021/01/25 05:47:13;;;;;;;34.08;19.05;;;;;;;-0.49;93.52;100236.69;5034384;28;20521;-79
2021/01/25 05:49:39;;;;;;;36.17;18.70;;;;;;;-0.56;93.21;100243.03;5036001;28;20029;-77
2021/01/25 05:52:05;;;;;;;31.70;18.52;;;;;;;-0.57;93.51;100248.84;5036694;28;20033;-78
2021/01/25 05:54:30;;;;;;;35.05;19.27;;;;;;;-0.53;93.43;100250.78;5034280;28;20029;-78
2021/01/25 05:56:55;;;;;;;29.98;17.02;;;;;;;-0.43;92.96;100257.22;5033355;28;20025;-79
2021/01/25 05:59:21;;;;;;;31.67;17.58;;;;;;;-0.46;92.61;100262.06;5033262;28;20108;-78
2021/01/25 06:01:48;;;;;;;30.95;17.08;;;;;;;-0.47;92.63;100260.34;5033372;28;20045;-78
2021/01/25 06:04:19;;;;;;;31.87;18.37;;;;;;;-0.59;92.66;100257.13;5034882;28;20033;-77
2021/01/25 06:07:05;;;;;;;36.27;18.03;;;;;;;-0.69;92.76;100260.72;5035524;28;20025;-78
2021/01/25 06:09:57;;;;;;;30.08;16.83;;;;;;;-0.76;93.17;100261.16;5033929;28;20088;-78
2021/01/25 06:12:32;;;;;;;34.63;18.03;;;;;;;-0.80;93.16;100260.09;5032903;28;20037;-78
2021/01/25 06:15:04;;;;;;;31.60;17.80;;;;;;;-0.78;93.07;100261.06;5034623;28;20025;-77
2021/01/25 06:17:32;;;;;;;26.73;15.33;;;;;;;-0.72;92.66;100275.69;5034040;28;20071;-78
2021/01/25 06:20:01;;;;;;;28.07;16.07;;;;;;;-0.73;92.28;100279.84;5031608;28;20026;-78
2021/01/25 06:22:27;;;;;;;34.83;17.17;;;;;;;-0.78;92.50;100285.41;5034294;28;20029;-78
2021/01/25 06:24:52;;;;;;;24.02;15.25;;;;;;;-0.76;92.50;100289.75;5032143;28;20020;-77
2021/01/25 06:27:22;;;;;;;28.38;15.45;;;;;;;-0.73;92.47;100297.50;5033722;28;20030;-78
2021/01/25 06:29:50;;;;;;;26.17;15.70;;;;;;;-0.71;92.34;100308.56;5033761;28;20017;-77
2021/01/25 06:32:16;;;;;;;28.50;15.27;;;;;;;-0.74;92.47;100310.91;5033126;28;20120;-77
2021/01/25 06:34:41;;;;;;;28.70;17.67;;;;;;;-0.77;92.72;100315.75;5033873;28;20455;-78
2021/01/25 06:37:09;;;;;;;29.00;17.43;;;;;;;-0.75;92.14;100316.72;5033472;28;20045;-77
2021/01/25 06:39:43;;;;;;;33.60;16.37;;;;;;;-0.74;92.14;100321.00;5032030;28;20280;-77
2021/01/25 06:42:14;;;;;;;27.40;15.40;;;;;;;-0.73;92.36;100322.72;5032060;28;20450;-78
2021/01/25 06:44:40;;;;;;;29.60;16.10;;;;;;;-0.80;92.22;100325.66;5033187;28;20104;-79
2021/01/25 06:47:06;;;;;;;30.23;17.08;;;;;;;-0.80;92.33;100329.84;5031842;28;20063;-78
2021/01/25 06:49:32;;;;;;;30.17;17.10;;;;;;;-0.78;92.30;100323.25;5031574;28;20507;-78
2021/01/25 06:51:58;;;;;;;26.88;15.40;;;;;;;-0.99;92.22;100332.88;5031439;28;20083;-77
2021/01/25 06:54:25;;;;;;;26.63;14.80;;;;;;;-1.20;92.09;100340.00;5033348;28;20040;-78
2021/01/25 06:56:51;;;;;;;32.93;17.80;;;;;;;-1.34;92.36;100341.66;5031560;28;20021;-77
2021/01/25 06:59:19;;;;;;;;;;;;;;;-1.33;92.90;100348.44;5032936;28;20028;-77
2021/01/25 07:01:49;;;;;;;28.67;15.53;;;;;;;-1.39;93.19;100348.06;5032607;28;19920;-77
2021/01/25 07:04:14;;;;;;;30.57;17.03;;;;;;;-1.38;93.42;100357.34;5031690;28;20531;-77
2021/01/25 07:06:44;;;;;;;31.67;17.95;;;;;;;-1.12;93.52;100365.69;5033072;28;20032;-78
2021/01/25 07:09:10;;;;;;;27.80;15.83;;;;;;;-1.17;93.10;100367.91;5032616;28;20056;-79
2021/01/25 07:11:36;;;;;;;33.20;17.98;;;;;;;-1.09;93.07;100370.91;5031284;28;20487;-78
2021/01/25 07:14:02;;;;;;;30.60;18.00;;;;;;;-1.06;92.98;100371.97;5032314;28;20025;-77
2021/01/25 07:16:27;;;;;;;;;;;;;;;-1.11;92.39;100382.56;5033691;28;20468;-78
2021/01/25 07:18:54;;;;;;;31.87;17.57;;;;;;;-1.05;92.55;100382.94;5031824;28;19917;-78
2021/01/25 07:21:21;;;;;;;32.57;16.93;;;;;;;-1.11;92.70;100395.16;5032445;28;20044;-76
2021/01/25 07:23:48;;;;;;;27.97;16.60;;;;;;;-1.33;92.50;100396.31;5031470;28;20083;-78
2021/01/25 07:26:15;;;;;;;31.50;18.27;;;;;;;-1.44;92.99;100397.28;5032061;28;20410;-78
2021/01/25 07:28:41;;;;;;;37.80;19.90;;;;;;;-1.50;93.54;100399.41;5033666;28;20089;-79
2021/01/25 07:31:09;;;;;;;40.23;20.80;;;;;;;-1.55;94.03;100400.78;5031308;28;20030;-77
2021/01/25 07:33:34;;;;;;;38.33;18.43;;;;;;;-1.57;94.10;100399.81;5032233;28;20033;-77
2021/01/25 07:36:00;;;;;;;30.48;17.05;;;;;;;-1.55;94.03;100412.50;5031519;28;20035;-78
2021/01/25 07:38:29;;;;;;;32.25;19.05;;;;;;;-1.40;94.03;100409.28;5032828;28;20034;-78
2021/01/25 07:40:57;;;;;;;33.83;18.90;;;;;;;-1.36;93.84;100413.75;5032762;28;20017;-77
2021/01/25 07:43:25;;;;;;;27.50;15.63;;;;;;;-1.34;92.93;100419.75;5032938;28;20100;-78
2021/01/25 07:45:51;;;;;;;37.67;17.77;;;;;;;-1.54;92.75;100420.16;5032737;28;20075;-78
2021/01/25 07:48:17;;;;;;;37.37;20.40;;;;;;;-1.59;93.23;100424.03;5032110;28;20029;-78
2021/01/25 07:50:52;;;;;;;34.92;19.42;;;;;;;-1.62;93.60;100431.38;5031598;28;20514;-80
2021/01/25 07:53:18;;;;;;;31.33;17.70;;;;;;;-1.62;93.67;100433.91;5031657;28;20022;-78
2021/01/25 07:55:43;;;;;;;30.75;16.65;;;;;;;-1.71;93.82;100440.81;5032707;28;20098;-79
2021/01/25 07:58:10;;;;;;;32.53;16.95;;;;;;;-1.80;93.96;100441.09;5032351;28;20032;-79
2021/01/25 08:00:37;;;;;;;28.80;15.93;;;;;;;-1.89;93.76;100443.91;5037445;28;20029;-82
2021/01/25 08:03:16;;;;;;;27.17;15.57;;;;;;;-1.96;93.88;100448.38;5035663;28;20037;-83
2021/01/25 08:05:43;;;;;;;30.93;17.87;;;;;;;-1.98;93.66;100460.88;5037050;28;20021;-82
2021/01/25 08:08:11;;;;;;;35.20;19.03;;;;;;;-1.94;94.18;100470.41;5033682;28;20030;-83
2021/01/25 08:10:37;;;;;;;37.30;19.20;;;;;;;-1.88;94.68;100465.78;5031266;28;20120;-81
2021/01/25 08:13:15;;;;;;;;;;;;;;;-1.78;94.79;100474.81;5032606;28;20483;-82
2021/01/25 08:16:03;;;;;;;28.77;17.10;;;;;;;-1.65;94.59;100481.50;5030842;28;19959;-81
2021/01/25 08:18:39;;;;;;;29.37;17.20;;;;;;;-1.47;93.92;100486.91;5031524;28;20084;-82
2021/01/25 08:21:06;;;;;;;32.95;18.88;;;;;;;-1.57;93.76;100490.47;5030662;28;20550;-82
2021/01/25 08:23:42;;;;;;;32.10;17.07;;;;;;;-1.32;93.35;100486.22;5031367;28;20037;-81
2021/01/25 08:26:09;;;;;;;33.17;18.17;;;;;;;-1.44;92.48;100493.00;5030328;28;20029;-81
2021/01/25 08:28:38;;;;;;;30.47;17.10;;;;;;;-1.37;92.84;100499.31;5030029;28;20039;-80
2021/01/25 08:31:16;;;;;;;35.83;19.10;;;;;;;-1.22;93.37;100497.81;5029207;28;20032;-81
2021/01/25 08:33:55;;;;;;;34.90;19.57;;;;;;;-0.95;92.91;100507.13;5027932;28;20022;-80
2021/01/25 08:36:27;;;;;;;34.20;18.73;;;;;;;-0.97;92.25;100503.66;5029863;28;20057;-81
2021/01/25 08:38:52;;;;;;;41.00;21.27;;;;;;;-0.95;92.45;100511.31;5030110;28;20104;-80
2021/01/25 08:41:28;;;;;;;32.72;19.20;;;;;;;-0.96;92.31;100507.91;5030232;28;20018;-80
2021/01/25 08:44:12;;;;;;;34.08;19.90;;;;;;;-1.01;92.80;100510.91;5033992;28;20033;-81
2021/01/25 08:46:38;;;;;;;40.30;21.60;;;;;;;-0.80;93.09;100522.34;5033881;28;20048;-81
2021/01/25 08:49:09;;;;;;;41.05;22.52;;;;;;;-0.61;93.54;100528.56;5033519;28;20491;-82
2021/01/25 08:51:37;;;;;;;35.70;21.67;;;;;;;-0.61;93.34;100526.06;5033469;28;20124;-82
2021/01/25 08:54:05;;;;;;;39.73;22.97;;;;;;;-0.61;93.41;100528.56;5034973;28;20048;-83
2021/01/25 08:56:49;;;;;;;41.20;22.43;;;;;;;-0.51;93.46;100531.75;5037919;28;20124;-79
2021/01/25 08:59:26;;;;;;;38.00;21.40;;;;;;;-0.19;92.47;100536.28;5043586;28;20038;-80
2021/01/25 09:01:52;;;;;;;39.03;20.37;;;;;;;-0.14;91.74;100536.53;5041033;28;20048;-79
2021/01/25 09:04:17;;;;;;;38.13;20.60;;;;;;;-0.29;91.65;100533.97;5041946;28;20029;-80
2021/01/25 09:06:51;;;;;;;36.15;21.05;;;;;;;-0.25;92.23;100535.91;5040860;28;20034;-80
2021/01/25 09:09:17;;;;;;;33.00;19.43;;;;;;;-0.25;92.48;100535.03;5039439;28;20033;-80
2021/01/25 09:11:43;;;;;;;39.45;20.48;;;;;;;-0.21;92.55;100542.88;5038457;28;20037;-81
2021/01/25 09:14:08;;;;;;;32.35;20.58;;;;;;;-0.24;92.36;100542.69;5040282;28;20033;-82
2021/01/25 09:16:33;;;;;;;30.60;19.00;;;;;;;-0.15;92.31;100547.41;5039067;28;20021;-79
2021/01/25 09:18:59;;;;;;;34.22;18.30;;;;;;;-0.09;92.31;100551.19;5039017;28;20363;-80
2021/01/25 09:21:24;;;;;;;29.07;18.97;;;;;;;-0.01;92.24;100557.56;5040380;28;20029;-79
2021/01/25 09:23:49;;;;;;;31.47;17.43;;;;;;;0.12;91.94;100551.63;5041361;28;20280;-79
2021/01/25 09:26:14;;;;;;;30.25;17.88;;;;;;;0.29;91.66;100558.56;5041345;28;20278;-80
2021/01/25 09:28:40;;;;;;;29.23;16.27;;;;;;;0.66;92.02;100564.94;5042945;28;20052;-79
2021/01/25 09:31:05;;;;;;;26.50;16.83;;;;;;;1.46;91.64;100561.06;5042641;28;20299;-81
2021/01/25 09:33:30;;;;;;;24.58;14.55;;;;;;;2.89;88.67;100568.63;5043291;28;20502;-79
2021/01/25 09:35:56;;;;;;;20.17;12.90;;;;;;;4.77;81.51;100560.38;5043448;28;20029;-81
2021/01/25 09:38:21;;;;;;;19.60;11.23;;;;;;;6.57;74.21;100562.31;5044527;28;20332;-80
2021/01/25 09:40:46;;;;;;;14.53;9.50;;;;;;;8.16;68.76;100558.06;5044158;28;20268;-80
2021/01/25 09:43:13;;;;;;;12.95;9.65;;;;;;;9.28;63.53;100560.19;5045074;28;20025;-81
2021/01/25 09:45:38;;;;;;;16.42;8.50;;;;;;;10.57;60.27;100559.63;5044797;28;20033;-80
2021/01/25 09:48:04;;;;;;;14.98;9.57;;;;;;;10.96;53.80;100571.47;5045340;28;20033;-81
2021/01/25 09:50:30;;;;;;;13.85;8.65;;;;;;;11.48;53.08;100575.78;5044385;28;20033;-80
2021/01/25 09:52:56;;;;;;;10.23;7.43;;;;;;;11.84;51.83;100578.06;5043966;28;20025;-80
2021/01/25 09:55:21;;;;;;;;;;;;;;;11.88;48.63;100581.53;5045116;28;20034;-81
2021/01/25 09:57:47;;;;;;;11.93;6.88;;;;;;;12.13;51.76;100588.78;5044000;28;19920;-80
2021/01/25 10:00:13;;;;;;;;;;;;;;;11.47;54.14;100598.91;5044585;28;20128;-80
2021/01/25 10:02:38;;;;;;;9.88;6.40;;;;;;;12.13;51.53;100598.19;5043980;28;19913;-80
2021/01/25 10:05:05;;;;;;;10.63;6.45;;;;;;;12.08;52.78;100597.28;5045587;28;20108;-81
2021/01/25 10:07:34;;;;;;;9.80;7.03;;;;;;;12.36;50.17;100599.38;5043639;28;20025;-80
2021/01/25 10:10:00;;;;;;;9.50;6.35;;;;;;;12.60;49.67;100597.91;5043174;28;20029;-81
2021/01/25 10:12:25;;;;;;;9.48;6.43;;;;;;;12.90;50.60;100600.81;5042444;28;20057;-80
2021/01/25 10:14:50;;;;;;;;;;;;;;;12.77;50.13;100607.59;5044054;28;20021;-81
2021/01/25 10:17:16;;;;;;;9.18;6.55;;;;;;;12.73;51.34;100608.41;5041699;28;19939;-80
2021/01/25 10:19:41;;;;;;;;;;;;;;;12.92;50.25;100614.59;5043025;28;20063;-81
2021/01/25 10:22:07;;;;;;;10.95;7.00;;;;;;;12.26;51.29;100619.81;5046063;28;19916;-81
2021/01/25 10:24:33;;;;;;;10.30;6.90;;;;;;;13.14;48.81;100612.25;5043125;28;20435;-81
2021/01/25 10:26:58;;;;;;;10.48;7.10;;;;;;;13.11;48.76;100620.81;5043809;28;20044;-81
2021/01/25 10:29:23;;;;;;;10.25;6.90;;;;;;;13.17;50.13;100626.06;5043526;28;20025;-81
2021/01/25 10:31:49;;;;;;;;;;;;;;;13.16;50.11;100631.19;5044595;28;20032;-81
2021/01/25 10:34:14;;;;;;;10.20;7.07;;;;;;;12.51;51.61;100633.88;5044161;28;19913;-81
2021/01/25 10:36:39;;;;;;;9.82;6.90;;;;;;;12.84;48.71;100636.88;5046252;28;20402;-81
2021/01/25 10:39:04;;;;;;;;;;;;;;;13.23;45.93;100645.88;5040557;28;20025;-82
2021/01/25 10:41:30;;;;;;;12.00;7.30;;;;;;;13.58;46.17;100643.63;5046438;28;19913;-85
2021/01/25 10:43:55;;;;;;;12.95;7.13;;;;;;;13.30;46.49;100645.09;5044493;28;20653;-81
2021/01/25 10:46:20;;;;;;;;;;;;;;;13.07;46.60;100655.16;5044863;28;20025;-85
2021/01/25 10:48:45;;;;;;;10.60;6.68;;;;;;;13.70;44.71;100660.09;5044327;28;19940;-84
2021/01/25 10:51:11;;;;;;;;;;;;;;;13.84;45.11;100661.91;5043301;28;20021;-82
2021/01/25 10:53:36;;;;;;;9.95;6.50;;;;;;;13.84;47.04;100662.75;5045432;28;19928;-82
2021/01/25 10:56:02;;;;;;;;;;;;;;;13.89;46.17;100662.78;5045523;28;20052;-83
2021/01/25 10:58:27;;;;;;;11.18;6.50;;;;;;;13.85;47.32;100668.78;5044557;28;19917;-84
2021/01/25 11:00:52;;;;;;;;;;;;;;;13.64;48.31;100665.19;5045437;28;20032;-84
2021/01/25 11:03:18;;;;;;;11.85;7.53;;;;;;;13.64;47.62;100670.34;5046612;28;20000;-82
2021/01/25 11:05:43;;;;;;;;;;;;;;;13.45;48.05;100673.63;5045824;28;20036;-83
2021/01/25 11:08:09;;;;;;;11.70;7.60;;;;;;;14.36;47.62;100675.16;5047066;28;19913;-85
2021/01/25 11:10:35;;;;;;;11.60;7.03;;;;;;;13.58;49.72;100670.28;5047839;28;20029;-85
2021/01/25 11:13:00;;;;;;;14.38;7.75;;;;;;;13.57;46.86;100675.44;5049676;28;20025;-85
2021/01/25 11:15:26;;;;;;;;;;;;;;;13.26;51.01;100680.31;5050827;28;20049;-85
2021/01/25 11:17:51;;;;;;;12.90;7.78;;;;;;;13.23;52.26;100682.88;5049514;28;19980;-85